createdAt,value
2018-07-21T00:00:16.801Z,57.1
2018-07-21T00:01:16.794Z,57.3
2018-07-21T00:02:17.133Z,57.6
2018-07-21T00:03:16.416Z,57.9
2018-07-21T00:04:16.966Z,57.9
2018-07-21T00:05:17.252Z,58.1
2018-07-21T00:06:16.528Z,58.1
2018-07-21T00:07:16.841Z,58.2
2018-07-21T00:08:17.160Z,58.4
2018-07-21T00:09:16.421Z,58.6
2018-07-21T00:10:16.689Z,58.8
2018-07-21T00:11:16.734Z,58.9
2018-07-21T00:12:17.000Z,59.1
2018-07-21T00:13:16.266Z,59.4
2018-07-21T00:14:16.657Z,59.7
2018-07-21T00:15:16.977Z,60.0
2018-07-21T00:16:17.233Z,60.3
2018-07-21T00:17:16.497Z,60.4
2018-07-21T00:18:16.760Z,60.3
2018-07-21T00:19:17.026Z,60.4
2018-07-21T00:20:16.294Z,60.7
2018-07-21T00:21:16.345Z,60.7
2018-07-21T00:22:16.606Z,60.6
2018-07-21T00:23:16.868Z,60.5
2018-07-21T00:24:17.128Z,60.4
2018-07-21T00:25:16.386Z,60.3
2018-07-21T00:26:16.646Z,60.3
2018-07-21T00:27:16.908Z,59.7
2018-07-21T00:28:17.180Z,59.9
2018-07-21T00:29:16.442Z,59.8
2018-07-21T00:30:16.734Z,59.8
2018-07-21T00:31:16.731Z,59.7
2018-07-21T00:32:16.987Z,59.6
2018-07-21T00:33:16.242Z,59.6
2018-07-21T00:34:16.503Z,59.6
2018-07-21T00:35:16.779Z,59.7
2018-07-21T00:36:17.037Z,59.8
2018-07-21T00:37:16.299Z,59.7
2018-07-21T00:38:16.568Z,59.5
2018-07-21T00:39:16.824Z,59.5
2018-07-21T00:40:17.092Z,59.4
2018-07-21T00:41:17.126Z,59.5
2018-07-21T00:42:16.391Z,59.5
2018-07-21T00:43:16.653Z,59.2
2018-07-21T00:44:16.911Z,59.3
2018-07-21T00:45:17.184Z,59.3
2018-07-21T00:46:16.460Z,59.3
2018-07-21T00:47:16.717Z,59.3
2018-07-21T00:48:16.973Z,59.3
2018-07-21T00:49:17.233Z,59.0
2018-07-21T00:50:16.509Z,59.1
2018-07-21T00:51:16.535Z,59.1
2018-07-21T00:52:16.793Z,59.0
2018-07-21T00:53:17.064Z,59.1
2018-07-21T00:54:16.320Z,58.9
2018-07-21T00:55:16.577Z,59.0
2018-07-21T00:56:16.839Z,58.9
2018-07-21T00:57:17.209Z,58.8
2018-07-21T00:58:16.471Z,58.7
2018-07-21T00:59:16.736Z,58.9
2018-07-21T01:00:17.012Z,58.6
2018-07-21T01:01:17.051Z,58.7
2018-07-21T01:02:16.329Z,58.6
2018-07-21T01:03:16.592Z,58.5
2018-07-21T01:04:16.849Z,58.6
2018-07-21T01:05:17.106Z,58.5
2018-07-21T01:06:16.375Z,58.4
2018-07-21T01:07:16.640Z,58.5
2018-07-21T01:08:16.907Z,58.4
2018-07-21T01:09:17.168Z,58.4
2018-07-21T01:10:16.437Z,58.4
2018-07-21T01:11:16.476Z,58.5
2018-07-21T01:12:16.780Z,58.4
2018-07-21T01:13:17.045Z,58.6
2018-07-21T01:14:16.298Z,58.6
2018-07-21T01:15:16.567Z,58.6
2018-07-21T01:16:16.825Z,58.6
2018-07-21T01:17:17.090Z,58.2
2018-07-21T01:18:16.345Z,58.4
2018-07-21T01:19:16.595Z,58.6
2018-07-21T01:20:16.873Z,58.9
2018-07-21T01:21:16.910Z,58.9
2018-07-21T01:22:17.169Z,58.9
2018-07-21T01:23:16.436Z,59.0
2018-07-21T01:24:16.693Z,58.9
2018-07-21T01:25:16.962Z,59.2
2018-07-21T01:26:17.233Z,59.3
2018-07-21T01:27:16.497Z,59.4
2018-07-21T01:28:16.749Z,59.5
2018-07-21T01:29:17.005Z,59.9
2018-07-21T01:30:16.269Z,59.9
2018-07-21T01:31:16.317Z,60.4
2018-07-21T01:32:16.589Z,60.2
2018-07-21T01:33:16.857Z,59.7
2018-07-21T01:34:17.109Z,60.0
2018-07-21T01:35:16.377Z,59.8
2018-07-21T01:36:16.630Z,59.3
2018-07-21T01:37:16.894Z,59.1
2018-07-21T01:38:17.161Z,59.0
2018-07-21T01:39:16.419Z,59.1
2018-07-21T01:40:16.688Z,58.9
2018-07-21T01:41:16.727Z,59.0
2018-07-21T01:42:16.999Z,59.0
2018-07-21T01:43:16.277Z,59.2
2018-07-21T01:44:16.536Z,59.0
2018-07-21T01:45:16.807Z,59.0
2018-07-21T01:46:17.074Z,59.0
2018-07-21T01:47:16.342Z,59.2
2018-07-21T01:48:16.616Z,59.3
2018-07-21T01:49:16.884Z,59.4
2018-07-21T01:50:17.157Z,59.1
2018-07-21T01:51:17.190Z,58.8
2018-07-21T01:52:16.459Z,59.0
2018-07-21T01:53:16.733Z,59.1
2018-07-21T01:54:16.983Z,58.9
2018-07-21T01:55:17.240Z,59.1
2018-07-21T01:56:16.505Z,59.3
2018-07-21T01:57:16.756Z,59.6
2018-07-21T01:58:17.016Z,59.4
2018-07-21T01:59:16.272Z,59.4
2018-07-21T02:00:16.549Z,59.1
2018-07-21T02:01:16.595Z,59.0
2018-07-21T02:02:16.854Z,59.1
2018-07-21T02:03:17.112Z,59.2
2018-07-21T02:04:16.375Z,59.2
2018-07-21T02:05:16.649Z,59.3
2018-07-21T02:06:16.922Z,59.3
2018-07-21T02:07:17.193Z,59.3
2018-07-21T02:08:16.853Z,59.4
2018-07-21T02:09:17.116Z,59.6
2018-07-21T02:10:16.376Z,59.5
2018-07-21T02:11:16.417Z,59.7
2018-07-21T02:12:16.680Z,59.7
2018-07-21T02:13:16.942Z,59.6
2018-07-21T02:14:17.208Z,59.5
2018-07-21T02:15:16.480Z,59.5
2018-07-21T02:16:16.738Z,59.4
2018-07-21T02:17:17.007Z,59.3
2018-07-21T02:18:16.261Z,59.3
2018-07-21T02:19:16.523Z,59.3
2018-07-21T02:20:16.784Z,59.4
2018-07-21T02:21:16.821Z,59.4
2018-07-21T02:22:17.079Z,59.5
2018-07-21T02:23:16.334Z,59.6
2018-07-21T02:24:16.597Z,59.7
2018-07-21T02:25:16.855Z,59.6
2018-07-21T02:26:17.127Z,59.5
2018-07-21T02:27:16.402Z,59.6
2018-07-21T02:28:16.670Z,59.4
2018-07-21T02:29:16.930Z,59.5
2018-07-21T02:30:17.203Z,59.6
2018-07-21T02:31:17.263Z,59.6
2018-07-21T02:32:16.531Z,59.8
2018-07-21T02:33:16.789Z,59.8
2018-07-21T02:34:17.048Z,60.0
2018-07-21T02:35:16.316Z,60.1
2018-07-21T02:36:16.580Z,60.1
2018-07-21T02:37:16.840Z,59.2
2018-07-21T02:38:17.109Z,59.6
2018-07-21T02:39:16.373Z,59.8
2018-07-21T02:40:16.639Z,60.0
2018-07-21T02:41:16.685Z,60.1
2018-07-21T02:42:16.957Z,60.1
2018-07-21T02:43:17.217Z,60.3
2018-07-21T02:44:16.475Z,60.3
2018-07-21T02:45:16.738Z,60.5
2018-07-21T02:46:17.004Z,60.2
2018-07-21T02:47:16.260Z,60.3
2018-07-21T02:48:16.515Z,60.3
2018-07-21T02:49:16.792Z,60.8
2018-07-21T02:50:17.063Z,61.0
2018-07-21T02:51:17.120Z,61.4
2018-07-21T02:52:16.392Z,61.7
2018-07-21T02:53:16.668Z,61.4
2018-07-21T02:54:16.937Z,61.4
2018-07-21T02:55:17.201Z,61.3
2018-07-21T02:56:16.464Z,61.4
2018-07-21T02:57:16.737Z,61.9
2018-07-21T02:58:16.994Z,61.7
2018-07-21T02:59:16.268Z,61.4
2018-07-21T03:00:16.544Z,61.9
2018-07-21T03:01:16.609Z,62.0
2018-07-21T03:02:16.879Z,62.0
2018-07-21T03:03:17.146Z,62.0
2018-07-21T03:04:16.411Z,62.1
2018-07-21T03:05:16.679Z,61.9
2018-07-21T03:06:16.943Z,62.1
2018-07-21T03:07:17.208Z,61.9
2018-07-21T03:08:16.475Z,61.9
2018-07-21T03:09:16.738Z,61.8
2018-07-21T03:10:17.262Z,61.9
2018-07-21T03:11:17.046Z,61.9
2018-07-21T03:12:16.311Z,62.1
2018-07-21T03:13:16.872Z,62.0
2018-07-21T03:14:17.141Z,62.1
2018-07-21T03:15:16.410Z,62.1
2018-07-21T03:16:16.680Z,62.0
2018-07-21T03:17:16.947Z,62.0
2018-07-21T03:18:17.484Z,62.0
2018-07-21T03:19:16.745Z,62.2
2018-07-21T03:20:17.036Z,62.4
2018-07-21T03:21:17.075Z,61.7
2018-07-21T03:22:16.332Z,61.9
2018-07-21T03:23:16.755Z,61.7
2018-07-21T03:24:17.054Z,61.9
2018-07-21T03:25:16.326Z,62.0
2018-07-21T03:26:16.583Z,62.3
2018-07-21T03:27:16.844Z,62.4
2018-07-21T03:28:17.112Z,62.4
2018-07-21T03:29:16.382Z,62.4
2018-07-21T03:30:16.666Z,62.4
2018-07-21T03:31:16.714Z,62.5
2018-07-21T03:32:16.991Z,62.4
2018-07-21T03:33:16.245Z,62.3
2018-07-21T03:34:16.516Z,62.3
2018-07-21T03:35:16.766Z,62.2
2018-07-21T03:36:17.028Z,62.2
2018-07-21T03:37:16.293Z,62.1
2018-07-21T03:38:16.560Z,62.1
2018-07-21T03:39:16.820Z,62.2
2018-07-21T03:40:17.079Z,63.4
2018-07-21T03:41:17.129Z,63.7
2018-07-21T03:42:16.388Z,63.9
2018-07-21T03:43:16.650Z,64.4
2018-07-21T03:44:16.921Z,64.5
2018-07-21T03:45:17.181Z,64.5
2018-07-21T03:46:16.440Z,64.2
2018-07-21T03:47:16.695Z,64.0
2018-07-21T03:48:16.945Z,64.1
2018-07-21T03:49:17.213Z,63.6
2018-07-21T03:50:16.486Z,64.1
2018-07-21T03:51:16.524Z,64.0
2018-07-21T03:52:16.783Z,63.7
2018-07-21T03:53:17.040Z,63.6
2018-07-21T03:54:16.295Z,63.8
2018-07-21T03:55:16.565Z,63.9
2018-07-21T03:56:16.823Z,63.7
2018-07-21T03:57:17.093Z,63.8
2018-07-21T03:58:16.347Z,63.9
2018-07-21T03:59:16.607Z,63.9
2018-07-21T04:00:16.887Z,63.9
2018-07-21T04:01:16.944Z,63.8
2018-07-21T04:02:17.220Z,63.9
2018-07-21T04:03:16.476Z,64.2
2018-07-21T04:04:16.742Z,64.2
2018-07-21T04:05:17.001Z,64.1
2018-07-21T04:06:16.254Z,64.0
2018-07-21T04:07:16.512Z,63.9
2018-07-21T04:08:16.785Z,64.0
2018-07-21T04:09:17.049Z,64.2
2018-07-21T04:10:16.310Z,64.3
2018-07-21T04:11:16.338Z,64.2
2018-07-21T04:12:16.600Z,64.5
2018-07-21T04:13:16.855Z,64.5
2018-07-21T04:14:17.127Z,64.3
2018-07-21T04:15:16.396Z,64.5
2018-07-21T04:16:16.658Z,64.5
2018-07-21T04:17:16.927Z,64.9
2018-07-21T04:18:17.711Z,64.9
2018-07-21T04:19:16.980Z,65.0
2018-07-21T04:20:17.244Z,66.1
2018-07-21T04:21:16.300Z,66.2
2018-07-21T04:22:16.560Z,66.5
2018-07-21T04:23:16.819Z,66.6
2018-07-21T04:24:17.211Z,66.3
2018-07-21T04:25:16.546Z,66.9
2018-07-21T04:26:16.831Z,67.0
2018-07-21T04:27:17.087Z,67.0
2018-07-21T04:28:16.351Z,68.2
2018-07-21T04:29:16.616Z,67.7
2018-07-21T04:30:16.889Z,68.4
2018-07-21T04:31:16.920Z,68.8
2018-07-21T04:32:17.181Z,68.7
2018-07-21T04:33:16.447Z,69.2
2018-07-21T04:34:16.710Z,69.9
2018-07-21T04:35:16.962Z,70.4
2018-07-21T04:36:17.228Z,70.6
2018-07-21T04:37:16.490Z,71.2
2018-07-21T04:38:16.750Z,70.0
2018-07-21T04:39:17.011Z,70.2
2018-07-21T04:40:16.275Z,71.0
2018-07-21T04:41:16.310Z,70.9
2018-07-21T04:42:16.570Z,70.5
2018-07-21T04:43:16.835Z,70.6
2018-07-21T04:44:17.111Z,71.6
2018-07-21T04:45:16.368Z,70.8
2018-07-21T04:46:16.630Z,70.2
2018-07-21T04:47:16.894Z,70.5
2018-07-21T04:48:17.158Z,71.0
2018-07-21T04:49:16.414Z,70.8
2018-07-21T04:50:16.685Z,71.0
2018-07-21T04:51:16.723Z,71.5
2018-07-21T04:52:17.015Z,70.5
2018-07-21T04:53:16.281Z,70.4
2018-07-21T04:54:16.548Z,70.2
2018-07-21T04:55:16.817Z,71.3
2018-07-21T04:56:17.075Z,71.3
2018-07-21T04:57:16.337Z,71.5
2018-07-21T04:58:16.604Z,70.5
2018-07-21T04:59:16.859Z,70.9
2018-07-21T05:00:17.128Z,71.2
2018-07-21T05:01:17.173Z,71.8
2018-07-21T05:02:16.439Z,71.8
2018-07-21T05:03:16.703Z,71.9
2018-07-21T05:04:16.963Z,72.1
2018-07-21T05:05:17.239Z,71.4
2018-07-21T05:06:16.500Z,71.4
2018-07-21T05:07:16.760Z,71.8
2018-07-21T05:08:17.022Z,71.6
2018-07-21T05:09:16.289Z,70.5
2018-07-21T05:10:16.550Z,71.2
2018-07-21T05:11:16.586Z,70.5
2018-07-21T05:12:16.858Z,70.2
2018-07-21T05:13:17.124Z,70.1
2018-07-21T05:14:16.379Z,70.3
2018-07-21T05:15:16.641Z,70.4
2018-07-21T05:16:16.896Z,70.1
2018-07-21T05:17:17.157Z,70.0
2018-07-21T05:18:16.423Z,70.0
2018-07-21T05:19:16.679Z,70.1
2018-07-21T05:20:16.948Z,70.1
2018-07-21T05:21:16.994Z,70.4
2018-07-21T05:22:16.260Z,70.1
2018-07-21T05:23:16.532Z,69.9
2018-07-21T05:24:16.797Z,70.1
2018-07-21T05:25:17.233Z,69.6
2018-07-21T05:26:16.489Z,69.7
2018-07-21T05:27:16.749Z,69.9
2018-07-21T05:28:17.007Z,69.8
2018-07-21T05:29:16.274Z,69.8
2018-07-21T05:30:16.548Z,70.4
2018-07-21T05:31:16.587Z,70.0
2018-07-21T05:32:16.854Z,69.6
2018-07-21T05:33:17.114Z,69.6
2018-07-21T05:34:16.374Z,69.5
2018-07-21T05:35:16.647Z,69.6
2018-07-21T05:36:16.933Z,69.4
2018-07-21T05:37:17.195Z,69.1
2018-07-21T05:38:16.452Z,69.5
2018-07-21T05:39:16.722Z,69.6
2018-07-21T05:40:16.997Z,69.5
2018-07-21T05:41:17.028Z,69.5
2018-07-21T05:42:16.282Z,69.4
2018-07-21T05:43:16.542Z,69.5
2018-07-21T05:44:16.805Z,69.5
2018-07-21T05:45:17.075Z,69.4
2018-07-21T05:46:16.336Z,69.4
2018-07-21T05:47:16.597Z,69.5
2018-07-21T05:48:16.859Z,69.7
2018-07-21T05:49:17.116Z,69.3
2018-07-21T05:50:16.387Z,69.4
2018-07-21T05:51:16.594Z,69.4
2018-07-21T05:52:16.860Z,69.4
2018-07-21T05:53:17.260Z,69.0
2018-07-21T05:54:16.572Z,69.1
2018-07-21T05:55:16.850Z,68.7
2018-07-21T05:56:17.120Z,68.6
2018-07-21T05:57:16.383Z,68.5
2018-07-21T05:58:16.644Z,68.2
2018-07-21T05:59:16.904Z,68.3
2018-07-21T06:00:17.169Z,68.4
2018-07-21T06:01:17.231Z,68.2
2018-07-21T06:02:16.502Z,68.0
2018-07-21T06:03:16.752Z,68.1
2018-07-21T06:04:17.009Z,68.2
2018-07-21T06:05:16.262Z,68.3
2018-07-21T06:06:16.533Z,68.2
2018-07-21T06:07:16.789Z,68.2
2018-07-21T06:08:17.062Z,68.3
2018-07-21T06:09:16.330Z,68.4
2018-07-21T06:10:16.602Z,68.4
2018-07-21T06:11:16.649Z,68.4
2018-07-21T06:12:16.919Z,68.2
2018-07-21T06:13:17.192Z,68.3
2018-07-21T06:14:16.457Z,68.6
2018-07-21T06:15:16.716Z,68.1
2018-07-21T06:16:16.968Z,68.1
2018-07-21T06:17:17.230Z,68.1
2018-07-21T06:18:16.486Z,68.1
2018-07-21T06:19:16.751Z,68.6
2018-07-21T06:20:17.013Z,68.8
2018-07-21T06:21:17.089Z,68.9
2018-07-21T06:22:16.375Z,69.3
2018-07-21T06:23:16.640Z,69.2
2018-07-21T06:24:16.892Z,69.1
2018-07-21T06:25:17.256Z,69.2
2018-07-21T06:26:16.587Z,68.7
2018-07-21T06:27:17.329Z,68.9
2018-07-21T06:28:16.601Z,68.9
2018-07-21T06:29:16.862Z,68.4
2018-07-21T06:30:17.134Z,68.6
2018-07-21T06:31:17.180Z,68.5
2018-07-21T06:32:16.449Z,68.4
2018-07-21T06:33:16.714Z,68.4
2018-07-21T06:34:16.974Z,68.4
2018-07-21T06:35:17.236Z,67.6
2018-07-21T06:36:16.488Z,67.7
2018-07-21T06:37:16.753Z,68.0
2018-07-21T06:38:17.006Z,68.5
2018-07-21T06:39:16.268Z,68.4
2018-07-21T06:40:16.546Z,68.1
2018-07-21T06:41:16.600Z,67.9
2018-07-21T06:42:16.858Z,68.3
2018-07-21T06:43:17.418Z,68.3
2018-07-21T06:44:16.721Z,68.3
2018-07-21T06:45:16.981Z,67.7
2018-07-21T06:46:17.243Z,67.2
2018-07-21T06:47:16.500Z,67.1
2018-07-21T06:48:16.760Z,67.1
2018-07-21T06:49:17.022Z,67.2
2018-07-21T06:50:16.302Z,66.8
2018-07-21T06:51:16.345Z,66.8
2018-07-21T06:52:16.596Z,66.8
2018-07-21T06:53:16.852Z,66.9
2018-07-21T06:54:17.109Z,66.9
2018-07-21T06:55:16.369Z,67.0
2018-07-21T06:56:16.635Z,67.2
2018-07-21T06:57:16.900Z,66.8
2018-07-21T06:58:17.160Z,66.6
2018-07-21T06:59:16.642Z,67.0
2018-07-21T07:00:16.931Z,67.1
2018-07-21T07:01:16.965Z,67.4
2018-07-21T07:02:17.225Z,68.4
2018-07-21T07:03:16.477Z,70.3
2018-07-21T07:04:16.732Z,71.6
2018-07-21T07:05:16.999Z,72.1
2018-07-21T07:06:16.263Z,74.7
2018-07-21T07:07:16.531Z,75.8
2018-07-21T07:08:16.793Z,75.3
2018-07-21T07:09:17.053Z,76.3
2018-07-21T07:10:16.434Z,76.1
2018-07-21T07:11:16.354Z,77.2
2018-07-21T07:12:16.622Z,77.9
2018-07-21T07:13:16.899Z,78.3
2018-07-21T07:14:17.157Z,77.3
2018-07-21T07:15:16.424Z,76.7
2018-07-21T07:16:16.762Z,77.3
2018-07-21T07:17:17.029Z,78.2
2018-07-21T07:18:16.282Z,79.9
2018-07-21T07:19:16.550Z,80.9
2018-07-21T07:20:16.828Z,81.0
2018-07-21T07:21:16.856Z,81.2
2018-07-21T07:22:17.112Z,81.4
2018-07-21T07:23:16.374Z,81.7
2018-07-21T07:24:16.647Z,80.9
2018-07-21T07:25:16.913Z,80.6
2018-07-21T07:26:17.177Z,82.0
2018-07-21T07:27:16.437Z,82.6
2018-07-21T07:28:16.692Z,83.0
2018-07-21T07:29:16.950Z,83.6
2018-07-21T07:30:17.218Z,83.4
2018-07-21T07:31:16.284Z,83.8
2018-07-21T07:32:16.546Z,84.6
2018-07-21T07:33:16.807Z,84.7
2018-07-21T07:34:17.070Z,84.9
2018-07-21T07:35:16.472Z,84.5
2018-07-21T07:36:16.793Z,83.7
2018-07-21T07:37:17.058Z,83.9
2018-07-21T07:38:16.334Z,83.2
2018-07-21T07:39:16.593Z,83.2
2018-07-21T07:40:16.857Z,82.1
2018-07-21T07:41:16.899Z,82.8
2018-07-21T07:42:17.370Z,83.1
2018-07-21T07:43:16.701Z,83.8
2018-07-21T07:44:16.961Z,83.7
2018-07-21T07:45:16.266Z,83.6
2018-07-21T07:46:16.522Z,83.4
2018-07-21T07:47:16.791Z,83.0
2018-07-21T07:48:17.350Z,83.3
2018-07-21T07:49:16.608Z,83.1
2018-07-21T07:50:16.891Z,83.6
2018-07-21T07:51:16.926Z,83.7
2018-07-21T07:52:17.184Z,83.6
2018-07-21T07:53:16.438Z,83.7
2018-07-21T07:54:16.978Z,83.5
2018-07-21T07:55:17.245Z,84.3
2018-07-21T07:56:16.527Z,83.7
2018-07-21T07:57:16.790Z,83.3
2018-07-21T07:58:17.049Z,83.8
2018-07-21T07:59:16.320Z,84.1
2018-07-21T08:00:16.604Z,84.4
2018-07-21T08:01:16.792Z,84.7
2018-07-21T08:02:17.113Z,84.7
2018-07-21T08:03:16.368Z,84.9
2018-07-21T08:04:16.642Z,85.2
2018-07-21T08:05:16.904Z,85.4
2018-07-21T08:06:17.157Z,85.7
2018-07-21T08:07:16.417Z,86.7
2018-07-21T08:08:16.769Z,86.7
2018-07-21T08:09:17.033Z,86.2
2018-07-21T08:10:16.294Z,86.5
2018-07-21T08:11:16.352Z,86.3
2018-07-21T08:12:16.605Z,86.4
2018-07-21T08:13:16.857Z,85.8
2018-07-21T08:14:17.486Z,85.7
2018-07-21T08:15:16.781Z,85.7
2018-07-21T08:16:17.040Z,85.7
2018-07-21T08:17:16.309Z,85.9
2018-07-21T08:18:16.619Z,85.3
2018-07-21T08:19:17.055Z,85.3
2018-07-21T08:20:16.319Z,85.3
2018-07-21T08:21:16.374Z,86.1
2018-07-21T08:22:16.638Z,86.8
2018-07-21T08:23:16.902Z,87.4
2018-07-21T08:24:17.160Z,86.7
2018-07-21T08:25:16.426Z,86.9
2018-07-21T08:26:16.699Z,87.9
2018-07-21T08:27:16.956Z,88.0
2018-07-21T08:28:17.205Z,87.8
2018-07-21T08:29:16.462Z,87.8
2018-07-21T08:30:16.721Z,87.0
2018-07-21T08:31:16.780Z,87.1
2018-07-21T08:32:17.053Z,88.0
2018-07-21T08:33:16.304Z,87.5
2018-07-21T08:34:16.563Z,87.9
2018-07-21T08:35:16.839Z,87.4
2018-07-21T08:36:17.098Z,87.2
2018-07-21T08:37:16.353Z,87.0
2018-07-21T08:38:16.620Z,87.4
2018-07-21T08:39:16.878Z,87.3
2018-07-21T08:40:17.145Z,87.7
2018-07-21T08:41:17.215Z,88.7
2018-07-21T08:42:16.466Z,89.0
2018-07-21T08:43:16.729Z,88.5
2018-07-21T08:44:16.988Z,88.0
2018-07-21T08:45:17.257Z,87.9
2018-07-21T08:46:16.520Z,86.9
2018-07-21T08:47:16.785Z,87.1
2018-07-21T08:48:17.047Z,87.7
2018-07-21T08:49:16.316Z,88.1
2018-07-21T08:50:16.577Z,88.4
2018-07-21T08:51:16.637Z,88.4
2018-07-21T08:52:16.908Z,88.1
2018-07-21T08:53:17.167Z,88.0
2018-07-21T08:54:16.481Z,87.5
2018-07-21T08:55:16.748Z,87.6
2018-07-21T08:56:17.009Z,87.8
2018-07-21T08:57:16.273Z,88.0
2018-07-21T08:58:16.537Z,87.4
2018-07-21T08:59:16.807Z,87.5
2018-07-21T09:00:17.084Z,87.7
2018-07-21T09:01:17.109Z,87.7
2018-07-21T09:02:16.364Z,87.6
2018-07-21T09:03:16.623Z,87.7
2018-07-21T09:04:16.886Z,87.7
2018-07-21T09:05:17.141Z,87.9
2018-07-21T09:06:16.394Z,88.1
2018-07-21T09:07:16.664Z,87.8
2018-07-21T09:08:16.927Z,88.3
2018-07-21T09:09:17.508Z,88.3
2018-07-21T09:10:16.779Z,88.5
2018-07-21T09:11:16.824Z,88.6
2018-07-21T09:12:17.085Z,87.6
2018-07-21T09:13:16.355Z,87.6
2018-07-21T09:14:16.617Z,87.8
2018-07-21T09:15:16.877Z,87.6
2018-07-21T09:16:17.141Z,87.5
2018-07-21T09:17:16.410Z,87.5
2018-07-21T09:18:16.667Z,87.8
2018-07-21T09:19:16.931Z,88.4
2018-07-21T09:20:17.211Z,89.0
2018-07-21T09:21:16.260Z,89.1
2018-07-21T09:22:16.535Z,89.1
2018-07-21T09:23:16.796Z,89.7
2018-07-21T09:24:17.060Z,90.5
2018-07-21T09:25:16.323Z,90.6
2018-07-21T09:26:16.593Z,90.7
2018-07-21T09:27:16.856Z,90.8
2018-07-21T09:28:17.380Z,90.9
2018-07-21T09:29:16.640Z,91.0
2018-07-21T09:30:16.919Z,91.1
2018-07-21T09:31:16.961Z,91.1
2018-07-21T09:32:17.226Z,91.3
2018-07-21T09:33:16.489Z,91.3
2018-07-21T09:34:16.943Z,91.3
2018-07-21T09:35:16.286Z,91.3
2018-07-21T09:36:16.541Z,91.6
2018-07-21T09:37:16.796Z,91.7
2018-07-21T09:38:17.065Z,91.9
2018-07-21T09:39:16.322Z,91.9
2018-07-21T09:40:16.731Z,92.0
2018-07-21T09:41:16.632Z,91.4
2018-07-21T09:42:16.892Z,91.5
2018-07-21T09:43:17.147Z,90.9
2018-07-21T09:44:16.409Z,90.8
2018-07-21T09:45:16.670Z,90.1
2018-07-21T09:46:16.927Z,90.6
2018-07-21T09:47:17.184Z,91.0
2018-07-21T09:48:16.447Z,91.1
2018-07-21T09:49:16.869Z,91.4
2018-07-21T09:50:17.206Z,91.4
2018-07-21T09:51:16.265Z,91.6
2018-07-21T09:52:16.518Z,92.0
2018-07-21T09:53:16.773Z,92.1
2018-07-21T09:54:17.026Z,92.1
2018-07-21T09:55:16.290Z,92.2
2018-07-21T09:56:16.555Z,91.9
2018-07-21T09:57:16.813Z,91.9
2018-07-21T09:58:17.079Z,91.8
2018-07-21T09:59:16.339Z,91.9
2018-07-21T10:00:16.627Z,91.9
2018-07-21T10:01:16.651Z,92.2
2018-07-21T10:02:16.923Z,92.0
2018-07-21T10:03:17.195Z,92.1
2018-07-21T10:04:16.452Z,91.8
2018-07-21T10:05:16.711Z,91.8
2018-07-21T10:06:16.980Z,91.7
2018-07-21T10:07:17.236Z,91.7
2018-07-21T10:08:16.490Z,91.6
2018-07-21T10:09:16.748Z,91.3
2018-07-21T10:10:17.015Z,91.4
2018-07-21T10:11:17.062Z,91.6
2018-07-21T10:12:16.323Z,91.8
2018-07-21T10:13:16.587Z,92.0
2018-07-21T10:14:16.839Z,92.0
2018-07-21T10:15:17.096Z,92.1
2018-07-21T10:16:16.362Z,92.3
2018-07-21T10:17:16.618Z,92.3
2018-07-21T10:18:16.884Z,92.2
2018-07-21T10:19:17.143Z,92.4
2018-07-21T10:20:16.411Z,92.4
2018-07-21T10:21:16.439Z,92.4
2018-07-21T10:22:16.907Z,92.3
2018-07-21T10:23:17.249Z,92.2
2018-07-21T10:24:16.512Z,92.0
2018-07-21T10:25:16.779Z,92.1
2018-07-21T10:26:17.035Z,92.1
2018-07-21T10:27:16.303Z,91.9
2018-07-21T10:28:16.685Z,91.7
2018-07-21T10:29:16.965Z,91.7
2018-07-21T10:30:17.627Z,91.6
2018-07-21T10:31:16.280Z,91.5
2018-07-21T10:32:16.538Z,91.1
2018-07-21T10:33:16.917Z,90.9
2018-07-21T10:34:17.244Z,90.4
2018-07-21T10:35:16.511Z,90.2
2018-07-21T10:36:17.377Z,90.3
2018-07-21T10:37:16.636Z,90.7
2018-07-21T10:38:16.920Z,90.3
2018-07-21T10:39:17.184Z,90.5
2018-07-21T10:40:16.535Z,90.6
2018-07-21T10:41:16.512Z,90.4
2018-07-21T10:42:16.767Z,90.6
2018-07-21T10:43:17.019Z,90.7
2018-07-21T10:44:16.278Z,90.6
2018-07-21T10:45:16.543Z,90.6
2018-07-21T10:46:16.806Z,90.0
2018-07-21T10:47:17.113Z,90.0
2018-07-21T10:48:16.367Z,90.0
2018-07-21T10:49:16.621Z,89.8
2018-07-21T10:50:16.890Z,89.6
2018-07-21T10:51:16.928Z,89.9
2018-07-21T10:52:17.196Z,90.2
2018-07-21T10:53:16.455Z,90.3
2018-07-21T10:54:16.714Z,89.8
2018-07-21T10:55:16.981Z,89.2
2018-07-21T10:56:17.252Z,89.1
2018-07-21T10:57:16.505Z,88.8
2018-07-21T10:58:16.764Z,88.1
2018-07-21T10:59:17.293Z,88.3
2018-07-21T11:00:16.630Z,88.4
2018-07-21T11:01:16.610Z,88.8
2018-07-21T11:02:16.891Z,89.3
2018-07-21T11:03:17.156Z,89.0
2018-07-21T11:04:16.411Z,88.7
2018-07-21T11:05:16.678Z,88.6
2018-07-21T11:06:16.968Z,88.8
2018-07-21T11:07:17.257Z,88.8
2018-07-21T11:08:16.510Z,88.8
2018-07-21T11:09:16.769Z,89.4
2018-07-21T11:10:17.030Z,89.2
2018-07-21T11:11:17.083Z,89.2
2018-07-21T11:12:16.347Z,88.3
2018-07-21T11:13:16.602Z,87.0
2018-07-21T11:14:16.863Z,87.3
2018-07-21T11:15:17.289Z,87.7
2018-07-21T11:16:16.620Z,88.4
2018-07-21T11:17:16.884Z,88.6
2018-07-21T11:18:17.139Z,87.9
2018-07-21T11:19:16.392Z,87.9
2018-07-21T11:20:16.661Z,87.5
2018-07-21T11:21:16.698Z,86.6
2018-07-21T11:22:16.953Z,86.2
2018-07-21T11:23:17.223Z,85.8
2018-07-21T11:24:16.484Z,85.7
2018-07-21T11:25:16.736Z,85.7
2018-07-21T11:26:16.993Z,86.5
2018-07-21T11:27:16.256Z,87.2
2018-07-21T11:28:16.509Z,87.0
2018-07-21T11:29:16.773Z,86.6
2018-07-21T11:30:17.048Z,85.9
2018-07-21T11:31:17.098Z,87.0
2018-07-21T11:32:16.358Z,87.6
2018-07-21T11:33:16.618Z,87.4
2018-07-21T11:34:16.881Z,86.9
2018-07-21T11:35:17.401Z,86.4
2018-07-21T11:36:17.187Z,86.8
2018-07-21T11:37:16.584Z,87.1
2018-07-21T11:38:16.849Z,87.1
2018-07-21T11:39:17.101Z,87.1
2018-07-21T11:40:16.364Z,86.8
2018-07-21T11:41:16.402Z,86.7
2018-07-21T11:42:16.661Z,86.6
2018-07-21T11:43:16.922Z,86.8
2018-07-21T11:44:17.200Z,86.7
2018-07-21T11:45:16.478Z,86.7
2018-07-21T11:46:16.735Z,86.7
2018-07-21T11:47:17.007Z,86.6
2018-07-21T11:48:16.260Z,86.2
2018-07-21T11:49:16.535Z,86.3
2018-07-21T11:50:16.801Z,86.4
2018-07-21T11:51:16.846Z,86.0
2018-07-21T11:52:17.108Z,85.8
2018-07-21T11:53:16.371Z,85.9
2018-07-21T11:54:16.629Z,86.2
2018-07-21T11:55:16.895Z,85.5
2018-07-21T11:56:17.169Z,85.6
2018-07-21T11:57:16.428Z,85.6
2018-07-21T11:58:16.685Z,86.3
2018-07-21T11:59:17.237Z,85.9
2018-07-21T12:00:16.568Z,85.7
2018-07-21T12:01:16.605Z,85.8
2018-07-21T12:02:17.173Z,86.1
2018-07-21T12:03:16.430Z,85.7
2018-07-21T12:04:16.686Z,85.3
2018-07-21T12:05:17.033Z,84.7
2018-07-21T12:06:16.300Z,85.2
2018-07-21T12:07:16.564Z,84.9
2018-07-21T12:08:16.820Z,84.4
2018-07-21T12:09:17.076Z,84.5
2018-07-21T12:10:16.347Z,84.8
2018-07-21T12:11:16.394Z,84.3
2018-07-21T12:12:16.652Z,84.2
2018-07-21T12:13:16.992Z,84.7
2018-07-21T12:14:16.263Z,85.0
2018-07-21T12:15:16.535Z,85.4
2018-07-21T12:16:16.789Z,85.3
2018-07-21T12:17:17.052Z,85.4
2018-07-21T12:18:16.306Z,84.6
2018-07-21T12:19:16.579Z,84.1
2018-07-21T12:20:16.930Z,83.3
2018-07-21T12:21:16.880Z,83.3
2018-07-21T12:22:17.142Z,83.1
2018-07-21T12:23:16.404Z,83.1
2018-07-21T12:24:16.707Z,82.5
2018-07-21T12:25:17.005Z,82.0
2018-07-21T12:26:16.269Z,82.9
2018-07-21T12:27:16.518Z,83.1
2018-07-21T12:28:16.776Z,83.5
2018-07-21T12:29:17.040Z,83.2
2018-07-21T12:30:16.314Z,83.8
2018-07-21T12:31:16.368Z,84.2
2018-07-21T12:32:16.636Z,84.1
2018-07-21T12:33:16.901Z,84.0
2018-07-21T12:34:17.220Z,84.3
2018-07-21T12:35:16.492Z,85.3
2018-07-21T12:36:16.748Z,84.7
2018-07-21T12:37:17.000Z,84.2
2018-07-21T12:38:16.266Z,84.4
2018-07-21T12:39:16.537Z,84.5
2018-07-21T12:40:16.805Z,84.5
2018-07-21T12:41:16.856Z,83.2
2018-07-21T12:42:17.114Z,83.1
2018-07-21T12:43:16.440Z,83.7
2018-07-21T12:44:16.706Z,84.1
2018-07-21T12:45:16.988Z,84.8
2018-07-21T12:46:17.261Z,84.6
2018-07-21T12:47:16.734Z,83.6
2018-07-21T12:48:17.001Z,83.5
2018-07-21T12:49:16.249Z,84.1
2018-07-21T12:50:16.508Z,84.1
2018-07-21T12:51:16.554Z,84.4
2018-07-21T12:52:16.803Z,84.8
2018-07-21T12:53:17.061Z,85.2
2018-07-21T12:54:16.309Z,84.9
2018-07-21T12:55:16.571Z,84.0
2018-07-21T12:56:16.813Z,83.8
2018-07-21T12:57:17.067Z,84.1
2018-07-21T12:58:16.321Z,83.5
2018-07-21T12:59:16.579Z,83.6
2018-07-21T13:00:16.840Z,83.3
2018-07-21T13:01:16.887Z,83.4
2018-07-21T13:02:17.144Z,83.7
2018-07-21T13:03:16.487Z,83.4
2018-07-21T13:04:16.753Z,83.5
2018-07-21T13:05:17.000Z,83.1
2018-07-21T13:06:16.251Z,83.6
2018-07-21T13:07:16.502Z,83.3
2018-07-21T13:08:16.750Z,83.3
2018-07-21T13:09:17.009Z,82.5
2018-07-21T13:10:16.260Z,82.8
2018-07-21T13:11:16.315Z,82.6
2018-07-21T13:12:16.583Z,82.1
2018-07-21T13:13:16.838Z,82.5
2018-07-21T13:14:17.099Z,83.7
2018-07-21T13:15:16.356Z,83.5
2018-07-21T13:16:16.609Z,82.8
2018-07-21T13:17:16.847Z,83.0
2018-07-21T13:18:17.104Z,83.7